Jennings, Kansas
Current Conditions -  °F | °C
As of 4:53 AM on Friday 28 Nov 2014 (Local Time) from KHLC Reporting Station
Clear Clear  
Wind Chill: 33°   Ceiling: Unl
Heat Index: 40°   Visibility: 10mi
Dew Point: 26°   Wind: 10mph
Humidity: 58%   Direction: 270°W
Pressure: 29.95"   Gusts: NA
Location:  39.68°N, 100.29°W
Report Text: KHLC 281053Z AUTO 27009KT 10SM CLR 04/M03 A2995 RMK AO2 SLP145 T00441033
Loading
Personal Weather Stations






























Interactive Weather Map New forecast layout! Learn more

10-Day Weather Forecast

Advertisements
Track Severe Weather on mobile